sim
Sign-in with your pilot id or email,
or register
Callsign
Passwort

Schedule Details

Flight Number: DLH2712 (1)
Departure: Munich Airport (EDDM) at 05:20
Arrival: Hamburg Airport (EDDH) at 06:40
Route: Lufthansa Passenger Schedule. Enter filed route here before submitting Pirep.

Weather Information
Getting current METAR information for EDDM 291450Z 26010KT 9999 4000SE -RADZ FEW006 SCT011 BKN018 11/10 Q1019 NOSIG
Getting current METAR information for EDDH 291450Z 16007KT 9999 FEW039 17/10 Q1015 NOSIG

Schedule Frequency

Route Map